Ganesha — 9HB3471 — position and weather

sailwx.info

Track history (hours):
 
Tides and Currents Weather Stations Pressure Air Temp Water Temp Dewpoint Dewpoint Depression Visibility Wind Speed Wind Dir Waves Ship Positions

Ganesha

Last reported at 2018-Jun-20 07:31 UTC. Time now 2018-Jun-20 07:52 UTC.
Position N 39°34' E 002°38'.

Length 46 m; draft 6.5 m.

Type: Sailing vessel. MMSI: 229492000.

Date/timePositionNaut miles runAvg speedWind from/ knotsBaromVisibWave heightAir tempDewpointWater temp
2018-Jun-20 07:31N 39°34' E 002°38'0 0.0
2018-Jun-20 07:00N 39°34' E 002°38'0 0.0
2018-Jun-20 06:30N 39°34' E 002°38'0 0.0
2018-Jun-20 06:01N 39°34' E 002°38'0 0.0
2018-Jun-20 05:30N 39°34' E 002°38'0 0.0
2018-Jun-20 05:00N 39°34' E 002°38'0 0.0
2018-Jun-20 04:30N 39°34' E 002°38'0 0.0
2018-Jun-20 04:00N 39°34' E 002°38'0 0.0
2018-Jun-20 03:30N 39°34' E 002°38'0 0.0
2018-Jun-20 03:00N 39°34' E 002°38'0 0.0
2018-Jun-20 02:30N 39°34' E 002°38'0 0.0
2018-Jun-20 02:00N 39°34' E 002°38'0 0.0
2018-Jun-20 01:30N 39°34' E 002°38'0 0.0
2018-Jun-20 01:01N 39°34' E 002°38'0 0.0
2018-Jun-20 00:30N 39°34' E 002°38'0 0.0
2018-Jun-20 00:00N 39°34' E 002°38'0 0.0
2018-Jun-19 23:30N 39°34' E 002°38'0 0.0
2018-Jun-19 23:00N 39°34' E 002°38'0 0.0
2018-Jun-19 22:30N 39°34' E 002°38'0 0.0
2018-Jun-19 22:00N 39°34' E 002°38'0 0.0
2018-Jun-19 21:30N 39°34' E 002°38'0 0.0
2018-Jun-19 21:00N 39°34' E 002°38'0 0.0
2018-Jun-19 20:29N 39°34' E 002°38'0 0.0
2018-Jun-19 20:01N 39°34' E 002°38'0 0.0
2018-Jun-19 19:30N 39°34' E 002°38'0 0.0
2018-Jun-19 19:00N 39°34' E 002°38'0 0.0
2018-Jun-19 18:30N 39°34' E 002°38'0 0.0
2018-Jun-19 18:00N 39°34' E 002°38'0 0.0
2018-Jun-19 17:31N 39°34' E 002°38'0 0.0
2018-Jun-19 17:00N 39°34' E 002°38'0 0.0
2018-Jun-19 16:30N 39°34' E 002°38'0 0.0
2018-Jun-19 16:00N 39°34' E 002°38'0 0.0
2018-Jun-19 15:30N 39°34' E 002°38'0 0.0
2018-Jun-19 15:00N 39°34' E 002°38'0 0.0
2018-Jun-19 14:30N 39°34' E 002°38'0 0.0
2018-Jun-19 14:00N 39°34' E 002°38'0 0.7
2018-Jun-19 13:31N 39°34' E 002°38'4 8.1
2018-Jun-19 13:00N 39°30' E 002°37'3 6.6
2018-Jun-19 12:30N 39°27' E 002°38'3 6.5
2018-Jun-19 12:00N 39°28' E 002°42'2 4.8
2018-Jun-19 11:30N 39°26' E 002°44'0 0.6
2018-Jun-19 11:00N 39°26' E 002°44'3 5.4
2018-Jun-19 10:30N 39°27' E 002°41'4 8.1
2018-Jun-19 10:00N 39°30' E 002°38'4 7.0
2018-Jun-19 09:30N 39°34' E 002°38'0 0.1
2018-Jun-19 09:00N 39°34' E 002°38'0 0.0
2018-Jun-19 08:30N 39°34' E 002°38'0 0.0
2018-Jun-19 08:00N 39°34' E 002°38'0 0.0
2018-Jun-19 07:27N 39°34' E 002°38'0 0.0
2018-Jun-19 07:00N 39°34' E 002°38'0 0.0
2018-Jun-19 06:30N 39°34' E 002°38'0 0.0
2018-Jun-19 06:00N 39°34' E 002°38'0 0.0
2018-Jun-19 05:30N 39°34' E 002°38'0 0.0
2018-Jun-19 05:00N 39°34' E 002°38'0 0.0
2018-Jun-19 04:30N 39°34' E 002°38'0 0.0
2018-Jun-19 04:00N 39°34' E 002°38'0 0.0
2018-Jun-19 03:30N 39°34' E 002°38'0 0.0
2018-Jun-19 03:00N 39°34' E 002°38'0 0.0
2018-Jun-19 02:30N 39°34' E 002°38'0 0.0
2018-Jun-19 02:00N 39°34' E 002°38'0 0.0
2018-Jun-19 01:30N 39°34' E 002°38'0 0.0
2018-Jun-19 01:00N 39°34' E 002°38'0 0.0
2018-Jun-19 00:30N 39°34' E 002°38'0 0.0
2018-Jun-19 00:00N 39°34' E 002°38'0 0.0
2018-Jun-18 23:30N 39°34' E 002°38'0 0.0
2018-Jun-18 23:00N 39°34' E 002°38'0 0.0
2018-Jun-18 22:30N 39°34' E 002°38'0 0.0
2018-Jun-18 22:00N 39°34' E 002°38'0 0.0
2018-Jun-18 21:30N 39°34' E 002°38'0 0.0
2018-Jun-18 21:00N 39°34' E 002°38'0 0.0
2018-Jun-18 20:30N 39°34' E 002°38'0 0.0
2018-Jun-18 20:00N 39°34' E 002°38'0 0.0
2018-Jun-18 19:30N 39°34' E 002°38'0 0.0
2018-Jun-18 19:00N 39°34' E 002°38'0 0.0
2018-Jun-18 18:30N 39°34' E 002°38'0 0.0
2018-Jun-18 18:00N 39°34' E 002°38'0 0.0
2018-Jun-18 17:30N 39°34' E 002°38'0 0.0
2018-Jun-18 17:00N 39°34' E 002°38'0 0.0
2018-Jun-18 16:30N 39°34' E 002°38'0 0.0
2018-Jun-18 16:00N 39°34' E 002°38'0 0.0
2018-Jun-18 15:30N 39°34' E 002°38'0 0.0
2018-Jun-18 15:00N 39°34' E 002°38'0 0.0
2018-Jun-18 14:30N 39°34' E 002°38'0 0.0
2018-Jun-18 14:00N 39°34' E 002°38'0 0.0
2018-Jun-18 13:30N 39°34' E 002°38'0 0.0
2018-Jun-18 13:00N 39°34' E 002°38'0 0.0
2018-Jun-18 12:30N 39°34' E 002°38'0 0.0
2018-Jun-18 12:00N 39°34' E 002°38'0 0.0
2018-Jun-18 11:24N 39°34' E 002°38'0 0.0
2018-Jun-18 10:57N 39°34' E 002°38'0 0.0
2018-Jun-18 10:30N 39°34' E 002°38'0 0.0
2018-Jun-18 10:00N 39°34' E 002°38'0 0.0
2018-Jun-18 09:30N 39°34' E 002°38'0 0.0
2018-Jun-18 09:00N 39°34' E 002°38'0 0.0
2018-Jun-18 08:30N 39°34' E 002°38'0 0.0
2018-Jun-18 08:00N 39°34' E 002°38'0 0.0
2018-Jun-18 07:30N 39°34' E 002°38'0 0.0
2018-Jun-18 07:00N 39°34' E 002°38'0 0.0
2018-Jun-18 06:30N 39°34' E 002°38'0 0.0
2018-Jun-18 06:00N 39°34' E 002°38'0 0.0
2018-Jun-18 05:30N 39°34' E 002°38'0 0.0
2018-Jun-18 05:00N 39°34' E 002°38'0 0.0
2018-Jun-18 04:30N 39°34' E 002°38'0 0.0
2018-Jun-18 04:00N 39°34' E 002°38'0 0.0
2018-Jun-18 03:30N 39°34' E 002°38'0 0.0
2018-Jun-18 03:00N 39°34' E 002°38'0 0.0
2018-Jun-18 02:30N 39°34' E 002°38'0 0.0
2018-Jun-18 02:00N 39°34' E 002°38'0 0.0
2018-Jun-18 01:30N 39°34' E 002°38'0 0.0
2018-Jun-18 01:00N 39°34' E 002°38'0 0.0
2018-Jun-18 00:30N 39°34' E 002°38'0 0.0
2018-Jun-18 00:00N 39°34' E 002°38'0 0.0
2018-Jun-17 23:30N 39°34' E 002°38'0 0.0
2018-Jun-17 23:00N 39°34' E 002°38'0 0.0
2018-Jun-17 22:30N 39°34' E 002°38'0 0.0
2018-Jun-17 22:00N 39°34' E 002°38'0 0.0
2018-Jun-17 21:30N 39°34' E 002°38'0 0.0
2018-Jun-17 21:00N 39°34' E 002°38'0 0.0
2018-Jun-17 20:30N 39°34' E 002°38'0 0.0
2018-Jun-17 20:00N 39°34' E 002°38'0 0.0
2018-Jun-17 19:30N 39°34' E 002°38'0 0.0
2018-Jun-17 19:00N 39°34' E 002°38'0 0.0
2018-Jun-17 18:30N 39°34' E 002°38'0 0.0
2018-Jun-17 18:00N 39°34' E 002°38'0 0.0
2018-Jun-17 17:30N 39°34' E 002°38'0 0.0
2018-Jun-17 17:00N 39°34' E 002°38'0 0.0
2018-Jun-17 16:30N 39°34' E 002°38'0 0.0
2018-Jun-17 16:00N 39°34' E 002°38'0 0.0
2018-Jun-17 15:30N 39°34' E 002°38'0 0.0
2018-Jun-17 15:00N 39°34' E 002°38'0 0.0
2018-Jun-17 14:30N 39°34' E 002°38'0 0.0
2018-Jun-17 14:00N 39°34' E 002°38'0 0.0
2018-Jun-17 13:30N 39°34' E 002°38'0 0.0
2018-Jun-17 13:00N 39°34' E 002°38'0 0.0
2018-Jun-17 12:30N 39°34' E 002°38'0 0.0
2018-Jun-17 12:00N 39°34' E 002°38'0 0.0
2018-Jun-17 11:30N 39°34' E 002°38'0 0.0
2018-Jun-17 11:00N 39°34' E 002°38'0 0.0
2018-Jun-17 10:27N 39°34' E 002°38'0 0.0
2018-Jun-17 10:00N 39°34' E 002°38'0 0.0
2018-Jun-17 09:30N 39°34' E 002°38'0 0.0
2018-Jun-17 09:00N 39°34' E 002°38'0 0.0
2018-Jun-17 08:30N 39°34' E 002°38'0 0.0
2018-Jun-17 08:00N 39°34' E 002°38'0 0.0
2018-Jun-17 07:30N 39°34' E 002°38'0 0.0
2018-Jun-17 06:57N 39°34' E 002°38'0 0.0
2018-Jun-17 06:30N 39°34' E 002°38'0 0.0
2018-Jun-17 06:00N 39°34' E 002°38'0 0.0
2018-Jun-17 05:30N 39°34' E 002°38'0 0.0
2018-Jun-17 05:00N 39°34' E 002°38'0 0.0
2018-Jun-17 04:30N 39°34' E 002°38'0 0.0
2018-Jun-17 04:00N 39°34' E 002°38'0 0.0
2018-Jun-17 03:30N 39°34' E 002°38'0 0.0
2018-Jun-17 03:00N 39°34' E 002°38'0 0.0
2018-Jun-17 02:30N 39°34' E 002°38'0 0.0
2018-Jun-17 02:00N 39°34' E 002°38'0 0.0
2018-Jun-17 01:30N 39°34' E 002°38'0 0.0
2018-Jun-17 01:00N 39°34' E 002°38'0 0.0
2018-Jun-17 00:30N 39°34' E 002°38'0 0.0
2018-Jun-17 00:00N 39°34' E 002°38'0 0.0
2018-Jun-16 23:30N 39°34' E 002°38'0 0.0
2018-Jun-16 23:00N 39°34' E 002°38'0 0.0
2018-Jun-16 22:30N 39°34' E 002°38'0 0.0
2018-Jun-16 22:00N 39°34' E 002°38'0 0.0
2018-Jun-16 21:30N 39°34' E 002°38'0 0.0
2018-Jun-16 21:00N 39°34' E 002°38'0 0.0
2018-Jun-16 20:30N 39°34' E 002°38'0 0.0
2018-Jun-16 20:00N 39°34' E 002°38'0 0.0
2018-Jun-16 19:30N 39°34' E 002°38'0 0.0
2018-Jun-16 19:00N 39°34' E 002°38'0 0.0
2018-Jun-16 18:30N 39°34' E 002°38'0 0.0
2018-Jun-16 18:00N 39°34' E 002°38'0 0.0
2018-Jun-16 17:30N 39°34' E 002°38'0 0.0
2018-Jun-16 17:00N 39°34' E 002°38'0 0.0
2018-Jun-16 16:30N 39°34' E 002°38'0 0.0
2018-Jun-16 16:00N 39°34' E 002°38'0 0.0
2018-Jun-16 15:30N 39°34' E 002°38'0 0.0
2018-Jun-16 15:00N 39°34' E 002°38'0 0.0
2018-Jun-16 14:30N 39°34' E 002°38'0 0.0
2018-Jun-16 14:00N 39°34' E 002°38'0 0.0
2018-Jun-16 13:30N 39°34' E 002°38'0 0.0
2018-Jun-16 13:00N 39°34' E 002°38'0 0.0
2018-Jun-16 12:30N 39°34' E 002°38'0 0.0
2018-Jun-16 11:57N 39°34' E 002°38'0 0.0
2018-Jun-16 11:30N 39°34' E 002°38'0 0.0
2018-Jun-16 11:00N 39°34' E 002°38'0 0.0
2018-Jun-16 10:30N 39°34' E 002°38'0 0.0
2018-Jun-16 10:00N 39°34' E 002°38'0 0.0
2018-Jun-16 09:30N 39°34' E 002°38'0 0.0
2018-Jun-16 08:57N 39°34' E 002°38'0 0.0
2018-Jun-16 08:30N 39°34' E 002°38'0 0.0
2018-Jun-16 08:00N 39°34' E 002°38'0 0.0
2018-Jun-16 07:30N 39°34' E 002°38'0 0.0
2018-Jun-16 07:00N 39°34' E 002°38'0 0.0
2018-Jun-16 06:30N 39°34' E 002°38'0 0.0
2018-Jun-16 06:00N 39°34' E 002°38'0 0.0
2018-Jun-16 05:30N 39°34' E 002°38'0 0.0
2018-Jun-16 05:00N 39°34' E 002°38'0 0.0
2018-Jun-16 04:30N 39°34' E 002°38'0 0.0
2018-Jun-16 04:00N 39°34' E 002°38'0 0.0
2018-Jun-16 03:30N 39°34' E 002°38'0 0.0
2018-Jun-16 03:00N 39°34' E 002°38'0 0.0
2018-Jun-16 02:30N 39°34' E 002°38'0 0.0
2018-Jun-16 02:00N 39°34' E 002°38'0 0.0
2018-Jun-16 01:30N 39°34' E 002°38'0 0.0
2018-Jun-16 01:00N 39°34' E 002°38'0 0.0
2018-Jun-16 00:30N 39°34' E 002°38'0 0.0
2018-Jun-16 00:00N 39°34' E 002°38'0 0.0
2018-Jun-15 23:30N 39°34' E 002°38'0 0.0
2018-Jun-15 23:00N 39°34' E 002°38'0 0.0
2018-Jun-15 22:30N 39°34' E 002°38'0 0.0
2018-Jun-15 22:00N 39°34' E 002°38'0 0.0
2018-Jun-15 21:30N 39°34' E 002°38'0 0.0
2018-Jun-15 21:00N 39°34' E 002°38'0 0.0
2018-Jun-15 20:30N 39°34' E 002°38'0 0.0
2018-Jun-15 20:00N 39°34' E 002°38'0 0.0
2018-Jun-15 19:30N 39°34' E 002°38'0 0.0
2018-Jun-15 19:00N 39°34' E 002°38'0 0.0
2018-Jun-15 18:30N 39°34' E 002°38'0 0.0
2018-Jun-15 18:00N 39°34' E 002°38'0 0.0
2018-Jun-15 17:30N 39°34' E 002°38'0 0.0
2018-Jun-15 17:00N 39°34' E 002°38'0 0.0
2018-Jun-15 16:30N 39°34' E 002°38'0 0.0
2018-Jun-15 16:00N 39°34' E 002°38'0 0.0
2018-Jun-15 15:30N 39°34' E 002°38'0 0.0
2018-Jun-15 15:00N 39°34' E 002°38'0 0.0
2018-Jun-15 14:30N 39°34' E 002°38'0 0.0
2018-Jun-15 14:00N 39°34' E 002°38'0 0.0
2018-Jun-15 13:29N 39°34' E 002°38'0 0.0
2018-Jun-15 13:00N 39°34' E 002°38'0 0.0
2018-Jun-15 11:56N 39°34' E 002°38'0 0.0
2018-Jun-15 11:29N 39°34' E 002°38'0 0.0
2018-Jun-15 10:59N 39°34' E 002°38'0 0.0
2018-Jun-15 10:29N 39°34' E 002°38'0 0.0
2018-Jun-15 10:00N 39°34' E 002°38'0 0.0
2018-Jun-15 09:30N 39°34' E 002°38'0 0.0
2018-Jun-15 09:00N 39°34' E 002°38'0 0.0
2018-Jun-15 08:30N 39°34' E 002°38'0 0.0
2018-Jun-15 07:59N 39°34' E 002°38'0 0.0
2018-Jun-15 07:23N 39°34' E 002°38'0 0.0
2018-Jun-15 07:00N 39°34' E 002°38'0 0.0
2018-Jun-15 06:24N 39°34' E 002°38'0 0.0
2018-Jun-15 05:59N 39°34' E 002°38'0 0.0
2018-Jun-15 05:29N 39°34' E 002°38'0 0.0
2018-Jun-15 04:59N 39°34' E 002°38'0 0.0
2018-Jun-15 04:30N 39°34' E 002°38'0 0.0
2018-Jun-15 04:00N 39°34' E 002°38'0 0.0
2018-Jun-15 03:30N 39°34' E 002°38'0 0.0
2018-Jun-15 03:00N 39°34' E 002°38'0 0.0
2018-Jun-15 02:29N 39°34' E 002°38'0 0.0
2018-Jun-15 02:00N 39°34' E 002°38'0 0.0
2018-Jun-15 01:30N 39°34' E 002°38'0 0.0
2018-Jun-15 00:59N 39°34' E 002°38'0 0.0
2018-Jun-15 00:30N 39°34' E 002°38'0 0.0
2018-Jun-14 23:59N 39°34' E 002°38'0 0.0
2018-Jun-14 23:29N 39°34' E 002°38'0 0.0
2018-Jun-14 22:59N 39°34' E 002°38'0 0.0
2018-Jun-14 22:29N 39°34' E 002°38'0 0.0
2018-Jun-14 21:56N 39°34' E 002°38'0 0.0
2018-Jun-14 21:29N 39°34' E 002°38'0 0.0
2018-Jun-14 20:59N 39°34' E 002°38'0 0.0
2018-Jun-14 20:29N 39°34' E 002°38'0 0.0
2018-Jun-14 19:59N 39°34' E 002°38'0 0.0
2018-Jun-14 19:29N 39°34' E 002°38'0 0.0
2018-Jun-14 18:59N 39°34' E 002°38'0 0.0
2018-Jun-14 18:30N 39°34' E 002°38'0 0.0
2018-Jun-14 17:59N 39°34' E 002°38'0 0.0
2018-Jun-14 17:29N 39°34' E 002°38'0 0.0
2018-Jun-14 17:00N 39°34' E 002°38'0 0.0
2018-Jun-14 16:29N 39°34' E 002°38'0 0.0
2018-Jun-14 15:59N 39°34' E 002°38'0 0.0
2018-Jun-14 15:29N 39°34' E 002°38'0 0.0
2018-Jun-14 14:59N 39°34' E 002°38'0 0.0
2018-Jun-14 14:29N 39°34' E 002°38'0 0.0
2018-Jun-14 13:59N 39°34' E 002°38'0 0.0
2018-Jun-14 13:29N 39°34' E 002°38'0 0.0
2018-Jun-14 12:59N 39°34' E 002°38'0 0.0
2018-Jun-14 12:29N 39°34' E 002°38'0 0.0
2018-Jun-14 11:59N 39°34' E 002°38'0 0.0
2018-Jun-14 11:29N 39°34' E 002°38'0 0.0
2018-Jun-14 10:59N 39°34' E 002°38'0 0.0
2018-Jun-14 10:29N 39°34' E 002°38'0 0.0
2018-Jun-14 09:59N 39°34' E 002°38'0 0.0
2018-Jun-14 09:29N 39°34' E 002°38'0 0.0
2018-Jun-14 08:59N 39°34' E 002°38'0 0.0
2018-Jun-14 08:29N 39°34' E 002°38'0 0.0
2018-Jun-14 07:59N 39°34' E 002°38'0 0.0
2018-Jun-14 07:29N 39°34' E 002°38'0 0.0
2018-Jun-14 06:59N 39°34' E 002°38'0 0.0
2018-Jun-14 06:29N 39°34' E 002°38'0 0.0
2018-Jun-14 05:59N 39°34' E 002°38'0 0.0
2018-Jun-14 05:29N 39°34' E 002°38'0 0.0
2018-Jun-14 04:59N 39°34' E 002°38'0 0.0
2018-Jun-14 04:29N 39°34' E 002°38'0 0.0
2018-Jun-14 03:59N 39°34' E 002°38'0 0.0
2018-Jun-14 03:29N 39°34' E 002°38'0 0.0
2018-Jun-14 02:59N 39°34' E 002°38'0 0.0
2018-Jun-14 02:29N 39°34' E 002°38'0 0.0
2018-Jun-14 01:59N 39°34' E 002°38'0 0.0
2018-Jun-14 01:29N 39°34' E 002°38'0 0.0
2018-Jun-14 00:59N 39°34' E 002°38'0 0.0
2018-Jun-14 00:29N 39°34' E 002°38'0 0.0
2018-Jun-13 23:59N 39°34' E 002°38'0 0.0
2018-Jun-13 23:29N 39°34' E 002°38'0 0.0
2018-Jun-13 22:59N 39°34' E 002°38'0 0.0
2018-Jun-13 22:29N 39°34' E 002°38'0 0.0
2018-Jun-13 21:59N 39°34' E 002°38'0 0.0
2018-Jun-13 21:29N 39°34' E 002°38'0 0.0
2018-Jun-13 20:56N 39°34' E 002°38'0 0.0
2018-Jun-13 20:29N 39°34' E 002°38'0 0.0
2018-Jun-13 19:59N 39°34' E 002°38'0 0.0
2018-Jun-13 19:29N 39°34' E 002°38'0 0.0
2018-Jun-13 18:59N 39°34' E 002°38'0 0.0
2018-Jun-13 18:29N 39°34' E 002°38'0 0.0
2018-Jun-13 17:59N 39°34' E 002°38'0 0.0
2018-Jun-13 17:29N 39°34' E 002°38'0 0.0
2018-Jun-13 16:59N 39°34' E 002°38'0 0.0
2018-Jun-13 16:29N 39°34' E 002°38'0 0.0
2018-Jun-13 15:59N 39°34' E 002°38'0 0.0
2018-Jun-13 15:29N 39°34' E 002°38'0 0.0
2018-Jun-13 14:59N 39°34' E 002°38'0 0.0
2018-Jun-13 14:29N 39°34' E 002°38'0 0.0
2018-Jun-13 13:59N 39°34' E 002°38'0 0.0
2018-Jun-13 13:29N 39°34' E 002°38'0 0.0
2018-Jun-13 12:59N 39°34' E 002°38'0 0.0
2018-Jun-13 12:29N 39°34' E 002°38'0 0.0
2018-Jun-13 11:59N 39°34' E 002°38'0 0.0
2018-Jun-13 11:29N 39°34' E 002°38'0 0.0
2018-Jun-13 10:59N 39°34' E 002°38'0 0.0
2018-Jun-13 10:29N 39°34' E 002°38'0 0.0
2018-Jun-13 09:59N 39°34' E 002°38'0 0.0
2018-Jun-13 09:29N 39°34' E 002°38'0 0.0
2018-Jun-13 08:59N 39°34' E 002°38'0 0.0
2018-Jun-13 08:30N 39°34' E 002°38'0 0.0
2018-Jun-13 08:00N 39°34' E 002°38'0 0.0
2018-Jun-13 07:30N 39°34' E 002°38'0 0.0
2018-Jun-13 07:00N 39°34' E 002°38'0 0.0
2018-Jun-13 06:30N 39°34' E 002°38'0 0.0
2018-Jun-13 06:00N 39°34' E 002°38'0 0.0
2018-Jun-13 05:30N 39°34' E 002°38'0 0.0
2018-Jun-13 05:00N 39°34' E 002°38'0 0.0
2018-Jun-13 04:30N 39°34' E 002°38'0 0.0
2018-Jun-13 04:00N 39°34' E 002°38'0 0.0
2018-Jun-13 03:30N 39°34' E 002°38'0 0.0
2018-Jun-13 03:00N 39°34' E 002°38'0 0.0
2018-Jun-13 02:30N 39°34' E 002°38'0 0.0
2018-Jun-13 02:00N 39°34' E 002°38'0 0.0
2018-Jun-13 01:30N 39°34' E 002°38'0 0.0
2018-Jun-13 01:00N 39°34' E 002°38'0 0.0
2018-Jun-13 00:30N 39°34' E 002°38'0 0.0
2018-Jun-13 00:00N 39°34' E 002°38'0 0.0
2018-Jun-12 23:29N 39°34' E 002°38'0 0.0
2018-Jun-12 23:00N 39°34' E 002°38'0 0.0
2018-Jun-12 22:30N 39°34' E 002°38'0 0.0
2018-Jun-12 22:00N 39°34' E 002°38'0 0.0
2018-Jun-12 21:29N 39°34' E 002°38'0 0.0
2018-Jun-12 20:59N 39°34' E 002°38'0 0.0
2018-Jun-12 20:29N 39°34' E 002°38'0 0.0
2018-Jun-12 20:00N 39°34' E 002°38'0 0.0
2018-Jun-12 19:30N 39°34' E 002°38'0 0.0
2018-Jun-12 18:49N 39°34' E 002°38'0 0.0
2018-Jun-12 18:30N 39°34' E 002°38'0 0.0
2018-Jun-12 18:00N 39°34' E 002°38'0 0.0
2018-Jun-12 17:30N 39°34' E 002°38'0 0.0
2018-Jun-12 17:00N 39°34' E 002°38'0 0.0
2018-Jun-12 16:30N 39°34' E 002°38'0 0.0
2018-Jun-12 16:00N 39°34' E 002°38'0 0.0
2018-Jun-12 15:30N 39°34' E 002°38'0 0.0
2018-Jun-12 15:00N 39°34' E 002°38'0 0.0
2018-Jun-12 14:30N 39°34' E 002°38'0 0.0
2018-Jun-12 14:00N 39°34' E 002°38'0 0.0
2018-Jun-12 13:30N 39°34' E 002°38'0 0.0
2018-Jun-12 13:00N 39°34' E 002°38'0 0.0
2018-Jun-12 12:30N 39°34' E 002°38'0 0.0
2018-Jun-12 12:00N 39°34' E 002°38'0 0.0
2018-Jun-12 11:30N 39°34' E 002°38'0 0.0
2018-Jun-12 11:00N 39°34' E 002°38'0 0.0
2018-Jun-12 10:30N 39°34' E 002°38'0 0.0
2018-Jun-12 10:00N 39°34' E 002°38'0 0.1
2018-Jun-12 09:30N 39°34' E 002°38'0 0.4
2018-Jun-12 09:00N 39°34' E 002°38'0 0.0
2018-Jun-12 08:29N 39°34' E 002°38'0 0.0
2018-Jun-12 08:00N 39°34' E 002°38'0 0.0
2018-Jun-12 07:30N 39°34' E 002°38'0 0.1
2018-Jun-12 06:59N 39°34' E 002°38'0 0.9
2018-Jun-12 06:30N 39°34' E 002°38'4 8.1
2018-Jun-12 06:00N 39°31' E 002°34'1 1.1
2018-Jun-12 05:25N 39°31' E 002°33'0 0.0
2018-Jun-12 04:58N 39°31' E 002°33'0 0.0
2018-Jun-12 04:28N 39°31' E 002°33'0 0.0
2018-Jun-12 03:55N 39°31' E 002°33'0 0.0
2018-Jun-12 03:28N 39°31' E 002°33'0 0.0
2018-Jun-12 02:58N 39°31' E 002°33'0 0.0
2018-Jun-12 02:28N 39°31' E 002°33'0 0.0
2018-Jun-12 01:58N 39°31' E 002°33'0 0.0
2018-Jun-12 01:28N 39°31' E 002°33'0 0.0
2018-Jun-12 00:58N 39°31' E 002°33'2 5.4
2018-Jun-12 00:30N 39°32' E 002°36'3 6.4
2018-Jun-12 00:00N 39°34' E 002°39'0 0.3
2018-Jun-11 23:30N 39°34' E 002°39'510.1
2018-Jun-11 23:00N 39°29' E 002°40'612.0
2018-Jun-11 22:30N 39°23' E 002°43'611.5
2018-Jun-11 22:00N 39°20' E 002°49'611.6
2018-Jun-11 21:30N 39°17' E 002°56'611.7
2018-Jun-11 20:57N 39°15' E 003°04'511.9
2018-Jun-11 20:29N 39°17' E 003°10'31311.0
2018-Jun-10 15:59N 41°09' E 009°32'1 2.6
2018-Jun-10 15:29N 41°08' E 009°32'0 0.0
2018-Jun-10 12:38N 41°08' E 009°32'  
Track history (hours):
 
Tides and Currents Weather Stations Pressure Air Temp Water Temp Dewpoint Dewpoint Depression Visibility Wind Speed Wind Dir Waves Ship Positions

Ganesha

Last reported at 2018-Jun-20 07:31 UTC. Time now 2018-Jun-20 07:52 UTC.
Position N 39°34' E 002°38'.

Length 46 m; draft 6.5 m.

Type: Sailing vessel. MMSI: 229492000.

Date/timePositionNaut miles runAvg speedWind from/ knotsBaromVisibWave heightAir tempDewpointWater temp
2018-Jun-20 07:31N 39°34' E 002°38'0 0.0
2018-Jun-20 07:00N 39°34' E 002°38'0 0.0
2018-Jun-20 06:30N 39°34' E 002°38'0 0.0
2018-Jun-20 06:01N 39°34' E 002°38'0 0.0
2018-Jun-20 05:30N 39°34' E 002°38'0 0.0
2018-Jun-20 05:00N 39°34' E 002°38'0 0.0
2018-Jun-20 04:30N 39°34' E 002°38'0 0.0
2018-Jun-20 04:00N 39°34' E 002°38'0 0.0
2018-Jun-20 03:30N 39°34' E 002°38'0 0.0
2018-Jun-20 03:00N 39°34' E 002°38'0 0.0
2018-Jun-20 02:30N 39°34' E 002°38'0 0.0
2018-Jun-20 02:00N 39°34' E 002°38'0 0.0
2018-Jun-20 01:30N 39°34' E 002°38'0 0.0
2018-Jun-20 01:01N 39°34' E 002°38'0 0.0
2018-Jun-20 00:30N 39°34' E 002°38'0 0.0
2018-Jun-20 00:00N 39°34' E 002°38'0 0.0
2018-Jun-19 23:30N 39°34' E 002°38'0 0.0
2018-Jun-19 23:00N 39°34' E 002°38'0 0.0
2018-Jun-19 22:30N 39°34' E 002°38'0 0.0
2018-Jun-19 22:00N 39°34' E 002°38'0 0.0
2018-Jun-19 21:30N 39°34' E 002°38'0 0.0
2018-Jun-19 21:00N 39°34' E 002°38'0 0.0
2018-Jun-19 20:29N 39°34' E 002°38'0 0.0
2018-Jun-19 20:01N 39°34' E 002°38'0 0.0
2018-Jun-19 19:30N 39°34' E 002°38'0 0.0
2018-Jun-19 19:00N 39°34' E 002°38'0 0.0
2018-Jun-19 18:30N 39°34' E 002°38'0 0.0
2018-Jun-19 18:00N 39°34' E 002°38'0 0.0
2018-Jun-19 17:31N 39°34' E 002°38'0 0.0
2018-Jun-19 17:00N 39°34' E 002°38'0 0.0
2018-Jun-19 16:30N 39°34' E 002°38'0 0.0
2018-Jun-19 16:00N 39°34' E 002°38'0 0.0
2018-Jun-19 15:30N 39°34' E 002°38'0 0.0
2018-Jun-19 15:00N 39°34' E 002°38'0 0.0
2018-Jun-19 14:30N 39°34' E 002°38'0 0.0
2018-Jun-19 14:00N 39°34' E 002°38'0 0.7
2018-Jun-19 13:31N 39°34' E 002°38'4 8.1
2018-Jun-19 13:00N 39°30' E 002°37'3 6.6
2018-Jun-19 12:30N 39°27' E 002°38'3 6.5
2018-Jun-19 12:00N 39°28' E 002°42'2 4.8
2018-Jun-19 11:30N 39°26' E 002°44'0 0.6
2018-Jun-19 11:00N 39°26' E 002°44'3 5.4
2018-Jun-19 10:30N 39°27' E 002°41'4 8.1
2018-Jun-19 10:00N 39°30' E 002°38'4 7.0
2018-Jun-19 09:30N 39°34' E 002°38'0 0.1
2018-Jun-19 09:00N 39°34' E 002°38'0 0.0
2018-Jun-19 08:30N 39°34' E 002°38'0 0.0
2018-Jun-19 08:00N 39°34' E 002°38'0 0.0
2018-Jun-19 07:27N 39°34' E 002°38'0 0.0
2018-Jun-19 07:00N 39°34' E 002°38'0 0.0
2018-Jun-19 06:30N 39°34' E 002°38'0 0.0
2018-Jun-19 06:00N 39°34' E 002°38'0 0.0
2018-Jun-19 05:30N 39°34' E 002°38'0 0.0
2018-Jun-19 05:00N 39°34' E 002°38'0 0.0
2018-Jun-19 04:30N 39°34' E 002°38'0 0.0
2018-Jun-19 04:00N 39°34' E 002°38'0 0.0
2018-Jun-19 03:30N 39°34' E 002°38'0 0.0
2018-Jun-19 03:00N 39°34' E 002°38'0 0.0
2018-Jun-19 02:30N 39°34' E 002°38'0 0.0
2018-Jun-19 02:00N 39°34' E 002°38'0 0.0
2018-Jun-19 01:30N 39°34' E 002°38'0 0.0
2018-Jun-19 01:00N 39°34' E 002°38'0 0.0
2018-Jun-19 00:30N 39°34' E 002°38'0 0.0
2018-Jun-19 00:00N 39°34' E 002°38'0 0.0
2018-Jun-18 23:30N 39°34' E 002°38'0 0.0
2018-Jun-18 23:00N 39°34' E 002°38'0 0.0
2018-Jun-18 22:30N 39°34' E 002°38'0 0.0
2018-Jun-18 22:00N 39°34' E 002°38'0 0.0
2018-Jun-18 21:30N 39°34' E 002°38'0 0.0
2018-Jun-18 21:00N 39°34' E 002°38'0 0.0
2018-Jun-18 20:30N 39°34' E 002°38'0 0.0
2018-Jun-18 20:00N 39°34' E 002°38'0 0.0
2018-Jun-18 19:30N 39°34' E 002°38'0 0.0
2018-Jun-18 19:00N 39°34' E 002°38'0 0.0
2018-Jun-18 18:30N 39°34' E 002°38'0 0.0
2018-Jun-18 18:00N 39°34' E 002°38'0 0.0
2018-Jun-18 17:30N 39°34' E 002°38'0 0.0
2018-Jun-18 17:00N 39°34' E 002°38'0 0.0
2018-Jun-18 16:30N 39°34' E 002°38'0 0.0
2018-Jun-18 16:00N 39°34' E 002°38'0 0.0
2018-Jun-18 15:30N 39°34' E 002°38'0 0.0
2018-Jun-18 15:00N 39°34' E 002°38'0 0.0
2018-Jun-18 14:30N 39°34' E 002°38'0 0.0
2018-Jun-18 14:00N 39°34' E 002°38'0 0.0
2018-Jun-18 13:30N 39°34' E 002°38'0 0.0
2018-Jun-18 13:00N 39°34' E 002°38'0 0.0
2018-Jun-18 12:30N 39°34' E 002°38'0 0.0
2018-Jun-18 12:00N 39°34' E 002°38'0 0.0
2018-Jun-18 11:24N 39°34' E 002°38'0 0.0
2018-Jun-18 10:57N 39°34' E 002°38'0 0.0
2018-Jun-18 10:30N 39°34' E 002°38'0 0.0
2018-Jun-18 10:00N 39°34' E 002°38'0 0.0
2018-Jun-18 09:30N 39°34' E 002°38'0 0.0
2018-Jun-18 09:00N 39°34' E 002°38'0 0.0
2018-Jun-18 08:30N 39°34' E 002°38'0 0.0
2018-Jun-18 08:00N 39°34' E 002°38'0 0.0
2018-Jun-18 07:30N 39°34' E 002°38'0 0.0
2018-Jun-18 07:00N 39°34' E 002°38'0 0.0
2018-Jun-18 06:30N 39°34' E 002°38'0 0.0
2018-Jun-18 06:00N 39°34' E 002°38'0 0.0
2018-Jun-18 05:30N 39°34' E 002°38'0 0.0
2018-Jun-18 05:00N 39°34' E 002°38'0 0.0
2018-Jun-18 04:30N 39°34' E 002°38'0 0.0
2018-Jun-18 04:00N 39°34' E 002°38'0 0.0
2018-Jun-18 03:30N 39°34' E 002°38'0 0.0
2018-Jun-18 03:00N 39°34' E 002°38'0 0.0
2018-Jun-18 02:30N 39°34' E 002°38'0 0.0
2018-Jun-18 02:00N 39°34' E 002°38'0 0.0
2018-Jun-18 01:30N 39°34' E 002°38'0 0.0
2018-Jun-18 01:00N 39°34' E 002°38'0 0.0
2018-Jun-18 00:30N 39°34' E 002°38'0 0.0
2018-Jun-18 00:00N 39°34' E 002°38'0 0.0
2018-Jun-17 23:30N 39°34' E 002°38'0 0.0
2018-Jun-17 23:00N 39°34' E 002°38'0 0.0
2018-Jun-17 22:30N 39°34' E 002°38'0 0.0
2018-Jun-17 22:00N 39°34' E 002°38'0 0.0
2018-Jun-17 21:30N 39°34' E 002°38'0 0.0
2018-Jun-17 21:00N 39°34' E 002°38'0 0.0
2018-Jun-17 20:30N 39°34' E 002°38'0 0.0
2018-Jun-17 20:00N 39°34' E 002°38'0 0.0
2018-Jun-17 19:30N 39°34' E 002°38'0 0.0
2018-Jun-17 19:00N 39°34' E 002°38'0 0.0
2018-Jun-17 18:30N 39°34' E 002°38'0 0.0
2018-Jun-17 18:00N 39°34' E 002°38'0 0.0
2018-Jun-17 17:30N 39°34' E 002°38'0 0.0
2018-Jun-17 17:00N 39°34' E 002°38'0 0.0
2018-Jun-17 16:30N 39°34' E 002°38'0 0.0
2018-Jun-17 16:00N 39°34' E 002°38'0 0.0
2018-Jun-17 15:30N 39°34' E 002°38'0 0.0
2018-Jun-17 15:00N 39°34' E 002°38'0 0.0
2018-Jun-17 14:30N 39°34' E 002°38'0 0.0
2018-Jun-17 14:00N 39°34' E 002°38'0 0.0
2018-Jun-17 13:30N 39°34' E 002°38'0 0.0
2018-Jun-17 13:00N 39°34' E 002°38'0 0.0
2018-Jun-17 12:30N 39°34' E 002°38'0 0.0
2018-Jun-17 12:00N 39°34' E 002°38'0 0.0
2018-Jun-17 11:30N 39°34' E 002°38'0 0.0
2018-Jun-17 11:00N 39°34' E 002°38'0 0.0
2018-Jun-17 10:27N 39°34' E 002°38'0 0.0
2018-Jun-17 10:00N 39°34' E 002°38'0 0.0
2018-Jun-17 09:30N 39°34' E 002°38'0 0.0
2018-Jun-17 09:00N 39°34' E 002°38'0 0.0
2018-Jun-17 08:30N 39°34' E 002°38'0 0.0
2018-Jun-17 08:00N 39°34' E 002°38'0 0.0
2018-Jun-17 07:30N 39°34' E 002°38'0 0.0
2018-Jun-17 06:57N 39°34' E 002°38'0 0.0
2018-Jun-17 06:30N 39°34' E 002°38'0 0.0
2018-Jun-17 06:00N 39°34' E 002°38'0 0.0
2018-Jun-17 05:30N 39°34' E 002°38'0 0.0
2018-Jun-17 05:00N 39°34' E 002°38'0 0.0
2018-Jun-17 04:30N 39°34' E 002°38'0 0.0
2018-Jun-17 04:00N 39°34' E 002°38'0 0.0
2018-Jun-17 03:30N 39°34' E 002°38'0 0.0
2018-Jun-17 03:00N 39°34' E 002°38'0 0.0
2018-Jun-17 02:30N 39°34' E 002°38'0 0.0
2018-Jun-17 02:00N 39°34' E 002°38'0 0.0
2018-Jun-17 01:30N 39°34' E 002°38'0 0.0
2018-Jun-17 01:00N 39°34' E 002°38'0 0.0
2018-Jun-17 00:30N 39°34' E 002°38'0 0.0
2018-Jun-17 00:00N 39°34' E 002°38'0 0.0
2018-Jun-16 23:30N 39°34' E 002°38'0 0.0
2018-Jun-16 23:00N 39°34' E 002°38'0 0.0
2018-Jun-16 22:30N 39°34' E 002°38'0 0.0
2018-Jun-16 22:00N 39°34' E 002°38'0 0.0
2018-Jun-16 21:30N 39°34' E 002°38'0 0.0
2018-Jun-16 21:00N 39°34' E 002°38'0 0.0
2018-Jun-16 20:30N 39°34' E 002°38'0 0.0
2018-Jun-16 20:00N 39°34' E 002°38'0 0.0
2018-Jun-16 19:30N 39°34' E 002°38'0 0.0
2018-Jun-16 19:00N 39°34' E 002°38'0 0.0
2018-Jun-16 18:30N 39°34' E 002°38'0 0.0
2018-Jun-16 18:00N 39°34' E 002°38'0 0.0
2018-Jun-16 17:30N 39°34' E 002°38'0 0.0
2018-Jun-16 17:00N 39°34' E 002°38'0 0.0
2018-Jun-16 16:30N 39°34' E 002°38'0 0.0
2018-Jun-16 16:00N 39°34' E 002°38'0 0.0
2018-Jun-16 15:30N 39°34' E 002°38'0 0.0
2018-Jun-16 15:00N 39°34' E 002°38'0 0.0
2018-Jun-16 14:30N 39°34' E 002°38'0 0.0
2018-Jun-16 14:00N 39°34' E 002°38'0 0.0
2018-Jun-16 13:30N 39°34' E 002°38'0 0.0
2018-Jun-16 13:00N 39°34' E 002°38'0 0.0
2018-Jun-16 12:30N 39°34' E 002°38'0 0.0
2018-Jun-16 11:57N 39°34' E 002°38'0 0.0
2018-Jun-16 11:30N 39°34' E 002°38'0 0.0
2018-Jun-16 11:00N 39°34' E 002°38'0 0.0
2018-Jun-16 10:30N 39°34' E 002°38'0 0.0
2018-Jun-16 10:00N 39°34' E 002°38'0 0.0
2018-Jun-16 09:30N 39°34' E 002°38'0 0.0
2018-Jun-16 08:57N 39°34' E 002°38'0 0.0
2018-Jun-16 08:30N 39°34' E 002°38'0 0.0
2018-Jun-16 08:00N 39°34' E 002°38'0 0.0
2018-Jun-16 07:30N 39°34' E 002°38'0 0.0
2018-Jun-16 07:00N 39°34' E 002°38'0 0.0
2018-Jun-16 06:30N 39°34' E 002°38'0 0.0
2018-Jun-16 06:00N 39°34' E 002°38'0 0.0
2018-Jun-16 05:30N 39°34' E 002°38'0 0.0
2018-Jun-16 05:00N 39°34' E 002°38'0 0.0
2018-Jun-16 04:30N 39°34' E 002°38'0 0.0
2018-Jun-16 04:00N 39°34' E 002°38'0 0.0
2018-Jun-16 03:30N 39°34' E 002°38'0 0.0
2018-Jun-16 03:00N 39°34' E 002°38'0 0.0
2018-Jun-16 02:30N 39°34' E 002°38'0 0.0
2018-Jun-16 02:00N 39°34' E 002°38'0 0.0
2018-Jun-16 01:30N 39°34' E 002°38'0 0.0
2018-Jun-16 01:00N 39°34' E 002°38'0 0.0
2018-Jun-16 00:30N 39°34' E 002°38'0 0.0
2018-Jun-16 00:00N 39°34' E 002°38'0 0.0
2018-Jun-15 23:30N 39°34' E 002°38'0 0.0
2018-Jun-15 23:00N 39°34' E 002°38'0 0.0
2018-Jun-15 22:30N 39°34' E 002°38'0 0.0
2018-Jun-15 22:00N 39°34' E 002°38'0 0.0
2018-Jun-15 21:30N 39°34' E 002°38'0 0.0
2018-Jun-15 21:00N 39°34' E 002°38'0 0.0
2018-Jun-15 20:30N 39°34' E 002°38'0 0.0
2018-Jun-15 20:00N 39°34' E 002°38'0 0.0
2018-Jun-15 19:30N 39°34' E 002°38'0 0.0
2018-Jun-15 19:00N 39°34' E 002°38'0 0.0
2018-Jun-15 18:30N 39°34' E 002°38'0 0.0
2018-Jun-15 18:00N 39°34' E 002°38'0 0.0
2018-Jun-15 17:30N 39°34' E 002°38'0 0.0
2018-Jun-15 17:00N 39°34' E 002°38'0 0.0
2018-Jun-15 16:30N 39°34' E 002°38'0 0.0
2018-Jun-15 16:00N 39°34' E 002°38'0 0.0
2018-Jun-15 15:30N 39°34' E 002°38'0 0.0
2018-Jun-15 15:00N 39°34' E 002°38'0 0.0
2018-Jun-15 14:30N 39°34' E 002°38'0 0.0
2018-Jun-15 14:00N 39°34' E 002°38'0 0.0
2018-Jun-15 13:29N 39°34' E 002°38'0 0.0
2018-Jun-15 13:00N 39°34' E 002°38'0 0.0
2018-Jun-15 11:56N 39°34' E 002°38'0 0.0
2018-Jun-15 11:29N 39°34' E 002°38'0 0.0
2018-Jun-15 10:59N 39°34' E 002°38'0 0.0
2018-Jun-15 10:29N 39°34' E 002°38'0 0.0
2018-Jun-15 10:00N 39°34' E 002°38'0 0.0
2018-Jun-15 09:30N 39°34' E 002°38'0 0.0
2018-Jun-15 09:00N 39°34' E 002°38'0 0.0
2018-Jun-15 08:30N 39°34' E 002°38'0 0.0
2018-Jun-15 07:59N 39°34' E 002°38'0 0.0
2018-Jun-15 07:23N 39°34' E 002°38'0 0.0
2018-Jun-15 07:00N 39°34' E 002°38'0 0.0
2018-Jun-15 06:24N 39°34' E 002°38'0 0.0
2018-Jun-15 05:59N 39°34' E 002°38'0 0.0
2018-Jun-15 05:29N 39°34' E 002°38'0 0.0
2018-Jun-15 04:59N 39°34' E 002°38'0 0.0
2018-Jun-15 04:30N 39°34' E 002°38'0 0.0
2018-Jun-15 04:00N 39°34' E 002°38'0 0.0
2018-Jun-15 03:30N 39°34' E 002°38'0 0.0
2018-Jun-15 03:00N 39°34' E 002°38'0 0.0
2018-Jun-15 02:29N 39°34' E 002°38'0 0.0
2018-Jun-15 02:00N 39°34' E 002°38'0 0.0
2018-Jun-15 01:30N 39°34' E 002°38'0 0.0
2018-Jun-15 00:59N 39°34' E 002°38'0 0.0
2018-Jun-15 00:30N 39°34' E 002°38'0 0.0
2018-Jun-14 23:59N 39°34' E 002°38'0 0.0
2018-Jun-14 23:29N 39°34' E 002°38'0 0.0
2018-Jun-14 22:59N 39°34' E 002°38'0 0.0
2018-Jun-14 22:29N 39°34' E 002°38'0 0.0
2018-Jun-14 21:56N 39°34' E 002°38'0 0.0
2018-Jun-14 21:29N 39°34' E 002°38'0 0.0
2018-Jun-14 20:59N 39°34' E 002°38'0 0.0
2018-Jun-14 20:29N 39°34' E 002°38'0 0.0
2018-Jun-14 19:59N 39°34' E 002°38'0 0.0
2018-Jun-14 19:29N 39°34' E 002°38'0 0.0
2018-Jun-14 18:59N 39°34' E 002°38'0 0.0
2018-Jun-14 18:30N 39°34' E 002°38'0 0.0
2018-Jun-14 17:59N 39°34' E 002°38'0 0.0
2018-Jun-14 17:29N 39°34' E 002°38'0 0.0
2018-Jun-14 17:00N 39°34' E 002°38'0 0.0
2018-Jun-14 16:29N 39°34' E 002°38'0 0.0
2018-Jun-14 15:59N 39°34' E 002°38'0 0.0
2018-Jun-14 15:29N 39°34' E 002°38'0 0.0
2018-Jun-14 14:59N 39°34' E 002°38'0 0.0
2018-Jun-14 14:29N 39°34' E 002°38'0 0.0
2018-Jun-14 13:59N 39°34' E 002°38'0 0.0
2018-Jun-14 13:29N 39°34' E 002°38'0 0.0
2018-Jun-14 12:59N 39°34' E 002°38'0 0.0
2018-Jun-14 12:29N 39°34' E 002°38'0 0.0
2018-Jun-14 11:59N 39°34' E 002°38'0 0.0
2018-Jun-14 11:29N 39°34' E 002°38'0 0.0
2018-Jun-14 10:59N 39°34' E 002°38'0 0.0
2018-Jun-14 10:29N 39°34' E 002°38'0 0.0
2018-Jun-14 09:59N 39°34' E 002°38'0 0.0
2018-Jun-14 09:29N 39°34' E 002°38'0 0.0
2018-Jun-14 08:59N 39°34' E 002°38'0 0.0
2018-Jun-14 08:29N 39°34' E 002°38'0 0.0
2018-Jun-14 07:59N 39°34' E 002°38'0 0.0
2018-Jun-14 07:29N 39°34' E 002°38'0 0.0
2018-Jun-14 06:59N 39°34' E 002°38'0 0.0
2018-Jun-14 06:29N 39°34' E 002°38'0 0.0
2018-Jun-14 05:59N 39°34' E 002°38'0 0.0
2018-Jun-14 05:29N 39°34' E 002°38'0 0.0
2018-Jun-14 04:59N 39°34' E 002°38'0 0.0
2018-Jun-14 04:29N 39°34' E 002°38'0 0.0
2018-Jun-14 03:59N 39°34' E 002°38'0 0.0
2018-Jun-14 03:29N 39°34' E 002°38'0 0.0
2018-Jun-14 02:59N 39°34' E 002°38'0 0.0
2018-Jun-14 02:29N 39°34' E 002°38'0 0.0
2018-Jun-14 01:59N 39°34' E 002°38'0 0.0
2018-Jun-14 01:29N 39°34' E 002°38'0 0.0
2018-Jun-14 00:59N 39°34' E 002°38'0 0.0
2018-Jun-14 00:29N 39°34' E 002°38'0 0.0
2018-Jun-13 23:59N 39°34' E 002°38'0 0.0
2018-Jun-13 23:29N 39°34' E 002°38'0 0.0
2018-Jun-13 22:59N 39°34' E 002°38'0 0.0
2018-Jun-13 22:29N 39°34' E 002°38'0 0.0
2018-Jun-13 21:59N 39°34' E 002°38'0 0.0
2018-Jun-13 21:29N 39°34' E 002°38'0 0.0
2018-Jun-13 20:56N 39°34' E 002°38'0 0.0
2018-Jun-13 20:29N 39°34' E 002°38'0 0.0
2018-Jun-13 19:59N 39°34' E 002°38'0 0.0
2018-Jun-13 19:29N 39°34' E 002°38'0 0.0
2018-Jun-13 18:59N 39°34' E 002°38'0 0.0
2018-Jun-13 18:29N 39°34' E 002°38'0 0.0
2018-Jun-13 17:59N 39°34' E 002°38'0 0.0
2018-Jun-13 17:29N 39°34' E 002°38'0 0.0
2018-Jun-13 16:59N 39°34' E 002°38'0 0.0
2018-Jun-13 16:29N 39°34' E 002°38'0 0.0
2018-Jun-13 15:59N 39°34' E 002°38'0 0.0
2018-Jun-13 15:29N 39°34' E 002°38'0 0.0
2018-Jun-13 14:59N 39°34' E 002°38'0 0.0
2018-Jun-13 14:29N 39°34' E 002°38'0 0.0
2018-Jun-13 13:59N 39°34' E 002°38'0 0.0
2018-Jun-13 13:29N 39°34' E 002°38'0 0.0
2018-Jun-13 12:59N 39°34' E 002°38'0 0.0
2018-Jun-13 12:29N 39°34' E 002°38'0 0.0
2018-Jun-13 11:59N 39°34' E 002°38'0 0.0
2018-Jun-13 11:29N 39°34' E 002°38'0 0.0
2018-Jun-13 10:59N 39°34' E 002°38'0 0.0
2018-Jun-13 10:29N 39°34' E 002°38'0 0.0
2018-Jun-13 09:59N 39°34' E 002°38'0 0.0
2018-Jun-13 09:29N 39°34' E 002°38'0 0.0
2018-Jun-13 08:59N 39°34' E 002°38'0 0.0
2018-Jun-13 08:30N 39°34' E 002°38'0 0.0
2018-Jun-13 08:00N 39°34' E 002°38'0 0.0
2018-Jun-13 07:30N 39°34' E 002°38'0 0.0
2018-Jun-13 07:00N 39°34' E 002°38'0 0.0
2018-Jun-13 06:30N 39°34' E 002°38'0 0.0
2018-Jun-13 06:00N 39°34' E 002°38'0 0.0
2018-Jun-13 05:30N 39°34' E 002°38'0 0.0
2018-Jun-13 05:00N 39°34' E 002°38'0 0.0
2018-Jun-13 04:30N 39°34' E 002°38'0 0.0
2018-Jun-13 04:00N 39°34' E 002°38'0 0.0
2018-Jun-13 03:30N 39°34' E 002°38'0 0.0
2018-Jun-13 03:00N 39°34' E 002°38'0 0.0
2018-Jun-13 02:30N 39°34' E 002°38'0 0.0
2018-Jun-13 02:00N 39°34' E 002°38'0 0.0
2018-Jun-13 01:30N 39°34' E 002°38'0 0.0
2018-Jun-13 01:00N 39°34' E 002°38'0 0.0
2018-Jun-13 00:30N 39°34' E 002°38'0 0.0
2018-Jun-13 00:00N 39°34' E 002°38'0 0.0
2018-Jun-12 23:29N 39°34' E 002°38'0 0.0
2018-Jun-12 23:00N 39°34' E 002°38'0 0.0
2018-Jun-12 22:30N 39°34' E 002°38'0 0.0
2018-Jun-12 22:00N 39°34' E 002°38'0 0.0
2018-Jun-12 21:29N 39°34' E 002°38'0 0.0
2018-Jun-12 20:59N 39°34' E 002°38'0 0.0
2018-Jun-12 20:29N 39°34' E 002°38'0 0.0
2018-Jun-12 20:00N 39°34' E 002°38'0 0.0
2018-Jun-12 19:30N 39°34' E 002°38'0 0.0
2018-Jun-12 18:49N 39°34' E 002°38'0 0.0
2018-Jun-12 18:30N 39°34' E 002°38'0 0.0
2018-Jun-12 18:00N 39°34' E 002°38'0 0.0
2018-Jun-12 17:30N 39°34' E 002°38'0 0.0
2018-Jun-12 17:00N 39°34' E 002°38'0 0.0
2018-Jun-12 16:30N 39°34' E 002°38'0 0.0
2018-Jun-12 16:00N 39°34' E 002°38'0 0.0
2018-Jun-12 15:30N 39°34' E 002°38'0 0.0
2018-Jun-12 15:00N 39°34' E 002°38'0 0.0
2018-Jun-12 14:30N 39°34' E 002°38'0 0.0
2018-Jun-12 14:00N 39°34' E 002°38'0 0.0
2018-Jun-12 13:30N 39°34' E 002°38'0 0.0
2018-Jun-12 13:00N 39°34' E 002°38'0 0.0
2018-Jun-12 12:30N 39°34' E 002°38'0 0.0
2018-Jun-12 12:00N 39°34' E 002°38'0 0.0
2018-Jun-12 11:30N 39°34' E 002°38'0 0.0
2018-Jun-12 11:00N 39°34' E 002°38'0 0.0
2018-Jun-12 10:30N 39°34' E 002°38'0 0.0
2018-Jun-12 10:00N 39°34' E 002°38'0 0.1
2018-Jun-12 09:30N 39°34' E 002°38'0 0.4
2018-Jun-12 09:00N 39°34' E 002°38'0 0.0
2018-Jun-12 08:29N 39°34' E 002°38'0 0.0
2018-Jun-12 08:00N 39°34' E 002°38'0 0.0
2018-Jun-12 07:30N 39°34' E 002°38'0 0.1
2018-Jun-12 06:59N 39°34' E 002°38'0 0.9
2018-Jun-12 06:30N 39°34' E 002°38'4 8.1
2018-Jun-12 06:00N 39°31' E 002°34'1 1.1
2018-Jun-12 05:25N 39°31' E 002°33'0 0.0
2018-Jun-12 04:58N 39°31' E 002°33'0 0.0
2018-Jun-12 04:28N 39°31' E 002°33'0 0.0
2018-Jun-12 03:55N 39°31' E 002°33'0 0.0
2018-Jun-12 03:28N 39°31' E 002°33'0 0.0
2018-Jun-12 02:58N 39°31' E 002°33'0 0.0
2018-Jun-12 02:28N 39°31' E 002°33'0 0.0
2018-Jun-12 01:58N 39°31' E 002°33'0 0.0
2018-Jun-12 01:28N 39°31' E 002°33'0 0.0
2018-Jun-12 00:58N 39°31' E 002°33'2 5.4
2018-Jun-12 00:30N 39°32' E 002°36'3 6.4
2018-Jun-12 00:00N 39°34' E 002°39'0 0.3
2018-Jun-11 23:30N 39°34' E 002°39'510.1
2018-Jun-11 23:00N 39°29' E 002°40'612.0
2018-Jun-11 22:30N 39°23' E 002°43'611.5
2018-Jun-11 22:00N 39°20' E 002°49'611.6
2018-Jun-11 21:30N 39°17' E 002°56'611.7
2018-Jun-11 20:57N 39°15' E 003°04'511.9
2018-Jun-11 20:29N 39°17' E 003°10'31311.0
2018-Jun-10 15:59N 41°09' E 009°32'1 2.6
2018-Jun-10 15:29N 41°08' E 009°32'0 0.0
2018-Jun-10 12:38N 41°08' E 009°32'  

Dump ship's entire track history